Time;durP1;ratioP1;P1;durP2;ratioP2;P2;SDS_P1;SDS_P2;PMS_P1;PMS_P2;Temp;Humidity;BMP_temperature;BMP_pressure;BME280_temperature;BME280_humidity;BME280_pressure;Samples;Min_cycle;Max_cycle;Signal;HPM_P1;HPM_P2
2023/02/09 00:00:14;;;;;;;;;;;;;;;-2.59;66.26;103227.75;4106075;28;20021;-63
2023/02/09 00:02:17;;;;;;;;;;;;;;;-2.59;66.30;103225.94;4107475;28;20013;-63
2023/02/09 00:04:19;;;;;;;;;;;;;;;-2.63;66.52;103221.66;4107483;28;20384;-63
2023/02/09 00:06:22;;;;;;;;;;;;;;;-2.61;66.38;103214.53;4107962;28;20029;-62
2023/02/09 00:08:25;;;;;;;;;;;;;;;-2.59;66.29;103211.84;4107551;28;20017;-63
2023/02/09 00:10:27;;;;;;;;;;;;;;;-2.61;66.46;103201.31;4107403;28;20027;-62
2023/02/09 00:14:49;;;;;;;;;;;;;;;-2.62;66.36;103199.56;4106096;28;20370;-63
2023/02/09 00:16:51;;;;;;;;;;;;;;;-2.65;66.33;103197.00;4106895;28;19974;-63
2023/02/09 00:18:56;;;;;;;;;;;;;;;-2.64;66.47;103192.56;4107530;28;20009;-63
2023/02/09 00:20:58;;;;;;;;;;;;;;;-2.64;66.35;103192.56;4105853;28;20020;-63
2023/02/09 00:22:59;;;;;;;;;;;;;;;-2.66;66.54;103191.75;4107693;28;20017;-63
2023/02/09 00:25:03;;;;;;;;;;;;;;;-2.68;66.44;103191.78;4106716;28;20013;-63
2023/02/09 00:27:05;;;;;;;;;;;;;;;-2.68;66.41;103197.06;4106185;28;20022;-62
2023/02/09 00:29:07;;;;;;;;;;;;;;;-2.72;66.55;103203.31;4106663;28;19953;-62
2023/02/09 00:31:10;;;;;;;;;;;;;;;-2.72;66.55;103196.22;4107091;28;20001;-62
2023/02/09 00:33:15;;;;;;;;;;;;;;;-2.71;66.56;103191.84;4107299;28;20020;-62
2023/02/09 00:35:17;;;;;;;;;;;;;;;-2.74;66.65;103181.31;4106820;28;20025;-62
2023/02/09 00:37:19;;;;;;;;;;;;;;;-2.73;66.58;103183.03;4121548;28;20042;-61
2023/02/09 00:39:21;;;;;;;;;;;;;;;-2.72;66.52;103176.84;4107149;28;20023;-61
2023/02/09 00:43:41;;;;;;;;;;;;;;;-2.83;66.63;103178.84;4106747;28;20448;-63
2023/02/09 00:45:43;;;;;;;;;;;;;;;-2.89;66.84;103177.19;4106965;28;20025;-62
2023/02/09 00:47:45;;;;;;;;;;;;;;;-2.92;66.96;103178.09;4107162;28;20024;-62
2023/02/09 00:49:47;;;;;;;;;;;;;;;-2.90;66.95;103178.97;4106864;28;20417;-61
2023/02/09 00:51:49;;;;;;;;;;;;;;;-2.93;66.94;103172.84;4106053;28;20075;-63
2023/02/09 00:53:51;;;;;;;;;;;;;;;-2.93;66.96;103173.72;4105683;28;20017;-63
2023/02/09 00:55:53;;;;;;;;;;;;;;;-2.92;66.99;103174.59;4106208;28;20480;-63
2023/02/09 00:57:56;;;;;;;;;;;;;;;-2.94;67.06;103166.69;4106603;28;20025;-63
2023/02/09 00:59:58;;;;;;;;;;;;;;;-2.94;67.04;103168.47;4106189;28;20029;-63
2023/02/09 01:02:00;;;;;;;;;;;;;;;-2.95;67.06;103170.22;4106726;28;20041;-63
2023/02/09 01:04:02;;;;;;;;;;;;;;;-2.96;67.08;103167.63;4107804;28;19991;-63
2023/02/09 01:06:04;;;;;;;;;;;;;;;-2.94;67.04;103157.91;4106701;28;20439;-63
2023/02/09 01:08:07;;;;;;;;;;;;;;;-2.95;66.93;103157.00;4105967;28;20013;-63
2023/02/09 01:10:12;;;;;;;;;;;;;;;-2.98;67.00;103159.75;4089821;28;20382;-62
2023/02/09 01:12:14;;;;;;;;;;;;;;;-3.02;67.01;103159.81;4106184;28;20025;-63
2023/02/09 01:14:17;;;;;;;;;;;;;;;-3.04;67.05;103156.31;4107103;28;20296;-61
2023/02/09 01:16:19;;;;;;;;;;;;;;;-3.09;67.26;103151.13;4106045;28;19981;-63
2023/02/09 01:18:21;;;;;;;;;;;;;;;-3.06;67.15;103155.47;4106450;28;20021;-62
2023/02/09 01:20:23;;;;;;;;;;;;;;;-3.05;67.13;103149.31;4118558;28;20036;-62
2023/02/09 01:22:25;;;;;;;;;;;;;;;-3.08;67.23;103150.22;4106790;28;20025;-63
2023/02/09 01:24:27;;;;;;;;;;;;;;;-3.12;67.25;103152.06;4105888;28;20014;-62
2023/02/09 01:26:29;;;;;;;;;;;;;;;-3.15;67.31;103149.47;4121582;28;20025;-63
2023/02/09 01:28:31;;;;;;;;;;;;;;;-3.17;67.42;103153.03;4105352;28;20021;-63
2023/02/09 01:30:35;;;;;;;;;;;;;;;-3.16;67.40;103152.16;4105239;28;20030;-63
2023/02/09 01:32:37;;;;;;;;;;;;;;;-3.16;67.49;103146.88;4105025;28;20449;-63
2023/02/09 01:34:39;;;;;;;;;;;;;;;-3.16;67.36;103144.22;4111653;28;20468;-64
2023/02/09 01:36:41;;;;;;;;;;;;;;;-3.15;67.39;103128.31;4106699;28;20016;-62
2023/02/09 01:38:43;;;;;;;;;;;;;;;-3.15;67.24;103125.69;4106930;28;20018;-62
2023/02/09 01:40:46;;;;;;;;;;;;;;;-3.16;67.30;103134.50;4105639;28;20029;-62
2023/02/09 01:42:48;;;;;;;;;;;;;;;-3.17;67.27;103116.88;4106277;28;20020;-62
2023/02/09 01:45:07;;;;;;;;;;;;;;;-3.16;67.37;103120.44;4106051;28;20359;-61
2023/02/09 01:47:18;;;;;;;;;;;;;;;-3.17;67.20;103118.66;4106005;28;20033;-60
2023/02/09 01:49:25;;;;;;;;;;;;;;;-3.21;67.28;103117.88;4104215;28;19941;-62
2023/02/09 01:51:33;;;;;;;;;;;;;;;-3.26;67.32;103117.06;4106290;28;20014;-63
2023/02/09 01:53:37;;;;;;;;;;;;;;;-3.27;67.41;103107.41;4105775;28;20022;-63
2023/02/09 01:55:40;;;;;;;;;;;;;;;-3.30;67.24;103110.97;4104978;28;20453;-63
2023/02/09 01:57:45;;;;;;;;;;;;;;;-3.34;67.46;103104.03;4107558;28;19952;-62
2023/02/09 01:59:48;;;;;;;;;;;;;;;-3.34;67.47;103111.06;4105915;28;20049;-62
2023/02/09 02:01:50;;;;;;;;;;;;;;;-3.39;67.62;103113.78;4105955;28;20025;-63
2023/02/09 02:03:54;;;;;;;;;;;;;;;-3.40;67.73;103109.41;4107112;28;19926;-62
2023/02/09 02:05:57;;;;;;;;;;;;;;;-3.44;67.75;103098.00;4103758;28;19965;-63
2023/02/09 02:08:00;;;;;;;;;;;;;;;-3.41;67.79;103099.75;4088949;29;20033;-63
2023/02/09 02:10:03;;;;;;;;;;;;;;;-3.39;67.70;103092.66;4105017;28;20014;-63
2023/02/09 02:12:05;;;;;;;;;;;;;;;-3.40;67.60;103087.38;4106974;28;20400;-63
2023/02/09 02:14:07;;;;;;;;;;;;;;;-3.42;67.71;103084.78;4120984;28;20448;-62
2023/02/09 02:16:13;;;;;;;;;;;;;;;-3.43;67.70;103077.78;4105410;28;19966;-61
2023/02/09 02:18:21;;;;;;;;;;;;;;;-3.50;67.74;103084.91;4105171;28;19926;-63
2023/02/09 02:20:56;;;;;;;;;;;;;;;-3.51;67.70;103072.63;4103009;28;19986;-63
2023/02/09 02:23:06;;;;;;;;;;;;;;;-3.57;67.61;103069.19;4103802;28;20458;-62
2023/02/09 02:25:26;;;;;;;;;;;;;;;-3.65;67.74;103075.50;4106061;28;20021;-62
2023/02/09 02:27:30;;;;;;;;;;;;;;;-3.68;68.11;103070.28;4104996;28;20014;-62
2023/02/09 02:29:51;;;;;;;;;;;;;;;-3.70;68.03;103077.38;4105791;28;19969;-63
2023/02/09 02:32:00;;;;;;;;;;;;;;;-3.69;68.09;103078.25;4104814;28;20038;-62
2023/02/09 02:34:04;;;;;;;;;;;;;;;-3.70;68.12;103077.38;4105498;28;20019;-62
2023/02/09 02:36:07;;;;;;;;;;;;;;;-3.67;68.17;103068.50;4105493;28;20569;-62
2023/02/09 02:38:12;;;;;;;;;;;;;;;-3.68;68.17;103058.88;4105286;28;20010;-62
2023/02/09 02:40:17;;;;;;;;;;;;;;;-3.72;68.15;103058.03;4104513;28;19988;-63
2023/02/09 02:44:41;;;;;;;;;;;;;;;-3.74;68.22;103057.19;4108622;28;19927;-62
2023/02/09 02:46:43;;;;;;;;;;;;;;;-3.76;68.23;103058.09;4109296;28;20009;-61
2023/02/09 02:48:47;;;;;;;;;;;;;;;-3.77;68.31;103054.59;4107264;28;20029;-63
2023/02/09 02:50:50;;;;;;;;;;;;;;;-3.77;68.34;103056.38;4122367;28;20025;-62
2023/02/09 02:52:52;;;;;;;;;;;;;;;-3.76;68.29;103053.72;4109203;28;19965;-62
2023/02/09 02:54:57;;;;;;;;;;;;;;;-3.76;68.07;103036.97;4108206;28;20009;-63
2023/02/09 02:57:00;;;;;;;;;;;;;;;-3.79;68.10;103048.50;4108596;28;20065;-63
2023/02/09 02:59:03;;;;;;;;;;;;;;;-3.82;68.26;103048.53;4108957;28;20024;-63
2023/02/09 03:01:06;;;;;;;;;;;;;;;-3.81;68.31;103037.06;4108719;28;20021;-63
2023/02/09 03:03:09;;;;;;;;;;;;;;;-3.82;68.29;103036.19;4108388;28;20024;-63
2023/02/09 03:05:12;;;;;;;;;;;;;;;-3.84;68.31;103031.84;4108931;28;20049;-64
2023/02/09 03:07:15;;;;;;;;;;;;;;;-3.81;68.33;103032.66;4108722;28;20021;-62
2023/02/09 03:09:17;;;;;;;;;;;;;;;-3.84;68.18;103030.09;4108291;28;20029;-63
2023/02/09 03:11:20;;;;;;;;;;;;;;;-3.83;68.34;103029.16;4108160;28;20385;-62
2023/02/09 03:13:29;;;;;;;;;;;;;;;-3.87;68.33;103030.13;4107933;28;20095;-63
2023/02/09 03:15:32;;;;;;;;;;;;;;;-3.91;68.39;103028.44;4107583;28;20341;-62
2023/02/09 03:17:36;;;;;;;;;;;;;;;-3.90;68.55;103031.94;4108417;28;20013;-64
2023/02/09 03:19:40;;;;;;;;;;;;;;;-3.88;68.50;103023.09;4107284;28;20588;-61
2023/02/09 03:21:45;;;;;;;;;;;;;;;-3.83;68.58;103023.03;4108391;28;20029;-62
2023/02/09 03:23:48;;;;;;;;;;;;;;;-3.80;68.27;103020.31;4108809;28;20025;-64
2023/02/09 03:25:50;;;;;;;;;;;;;;;-3.77;68.21;103016.78;4109167;28;19926;-64
2023/02/09 03:27:53;;;;;;;;;;;;;;;-3.79;67.94;103019.44;4108675;28;19931;-63
2023/02/09 03:29:56;;;;;;;;;;;;;;;-3.82;68.14;103022.13;4108387;28;20033;-63
2023/02/09 03:31:58;;;;;;;;;;;;;;;-3.81;68.15;103018.56;4107383;28;20013;-63
2023/02/09 03:34:00;;;;;;;;;;;;;;;-3.80;67.90;103017.69;4106779;28;20037;-63
2023/02/09 03:36:02;;;;;;;;;;;;;;;-3.82;68.22;103017.72;4107784;28;20013;-63
2023/02/09 03:38:06;;;;;;;;;;;;;;;-3.80;68.29;103013.25;4107628;28;20367;-63
2023/02/09 03:40:11;;;;;;;;;;;;;;;-3.81;68.22;103011.53;4108041;28;20009;-63
2023/02/09 03:42:13;;;;;;;;;;;;;;;-3.78;68.01;103010.59;4107250;28;20010;-63
2023/02/09 03:44:25;;;;;;;;;;;;;;;-3.76;67.95;102997.38;4108103;28;20748;-63
2023/02/09 03:46:27;;;;;;;;;;;;;;;-3.75;67.80;102999.13;4108066;28;20025;-63
2023/02/09 03:48:29;;;;;;;;;;;;;;;-3.76;67.87;102992.09;4108000;28;20020;-64
2023/02/09 03:50:31;;;;;;;;;;;;;;;-3.77;67.82;102991.22;4107929;28;20025;-63
2023/02/09 03:52:33;;;;;;;;;;;;;;;-3.78;67.95;102991.25;4107659;28;20472;-63
2023/02/09 03:54:37;;;;;;;;;;;;;;;-3.78;67.93;102994.75;4107350;28;20013;-63
2023/02/09 03:56:39;;;;;;;;;;;;;;;-3.78;67.85;102992.09;4108162;28;20042;-63
2023/02/09 03:58:41;;;;;;;;;;;;;;;-3.77;67.85;102988.59;4108142;28;20031;-63
2023/02/09 04:00:43;;;;;;;;;;;;;;;-3.74;67.81;102987.66;4107102;28;20014;-63
2023/02/09 04:02:45;;;;;;;;;;;;;;;-3.72;67.71;102988.50;4106957;28;20049;-63
2023/02/09 04:04:47;;;;;;;;;;;;;;;-3.71;67.65;102992.88;4107271;28;20021;-64
2023/02/09 04:06:49;;;;;;;;;;;;;;;-3.69;67.33;102994.59;4106926;28;20021;-63
2023/02/09 04:08:51;;;;;;;;;;;;;;;-3.67;67.48;102984.00;4106546;28;20042;-63
2023/02/09 04:10:54;;;;;;;;;;;;;;;-3.70;67.46;102987.56;4106931;28;20020;-63
2023/02/09 04:12:56;;;;;;;;;;;;;;;-3.68;67.54;102988.41;4090736;28;20021;-64
2023/02/09 04:14:58;;;;;;;;;;;;;;;-3.68;67.40;102982.28;4107274;28;20017;-64
2023/02/09 04:17:00;;;;;;;;;;;;;;;-3.69;67.31;102991.94;4107283;28;20934;-63
2023/02/09 04:19:02;;;;;;;;;;;;;;;-3.70;67.33;102987.56;4105620;28;20017;-64
2023/02/09 04:21:04;;;;;;;;;;;;;;;-3.69;67.46;102983.16;4107043;28;20029;-62
2023/02/09 04:23:06;;;;;;;;;;;;;;;-3.68;67.31;102977.84;4107454;28;20021;-64
2023/02/09 04:25:08;;;;;;;;;;;;;;;-3.70;67.30;102974.38;4107072;28;20022;-64
2023/02/09 04:27:11;;;;;;;;;;;;;;;-3.70;67.33;102977.00;4108416;28;20033;-64
2023/02/09 04:29:13;;;;;;;;;;;;;;;-3.70;67.35;102978.75;4107967;28;20005;-63
2023/02/09 04:31:15;;;;;;;;;;;;;;;-3.71;67.28;102969.97;4106330;28;21576;-64
2023/02/09 04:33:17;;;;;;;;;;;;;;;-3.69;67.44;102969.94;4107268;28;20440;-63
2023/02/09 04:35:19;;;;;;;;;;;;;;;-3.68;67.35;102972.56;4106745;28;20021;-62
2023/02/09 04:37:21;;;;;;;;;;;;;;;-3.63;67.41;102970.69;4106461;28;20025;-64
2023/02/09 04:39:23;;;;;;;;;;;;;;;-3.65;67.02;102977.78;4107014;28;20020;-64
2023/02/09 04:41:25;;;;;;;;;;;;;;;-3.59;67.36;102970.63;4106998;28;20021;-64
2023/02/09 04:43:28;;;;;;;;;;;;;;;-3.55;67.12;102985.53;4106639;28;20026;-64
2023/02/09 04:45:30;;;;;;;;;;;;;;;-3.50;67.06;102986.31;4106199;28;20053;-64
2023/02/09 04:47:32;;;;;;;;;;;;;;;-3.48;66.81;102984.50;4107532;28;20013;-64
2023/02/09 04:49:34;;;;;;;;;;;;;;;-3.47;66.62;102980.97;4106115;28;21399;-64
2023/02/09 04:51:36;;;;;;;;;;;;;;;-3.48;66.40;102980.09;4106697;28;20464;-64
2023/02/09 04:53:38;;;;;;;;;;;;;;;-3.50;66.20;102981.03;4105968;28;20571;-64
2023/02/09 04:55:41;;;;;;;;;;;;;;;-3.54;66.39;102981.97;4107163;28;20021;-64
2023/02/09 05:00:04;;;;;;;;;;;;;;;-3.61;66.68;102973.31;4106186;28;20017;-64
2023/02/09 05:02:06;;;;;;;;;;;;;;;-3.59;66.83;102974.13;4106618;28;20029;-64
2023/02/09 05:04:08;;;;;;;;;;;;;;;-3.57;66.67;102979.38;4106598;28;20452;-64
2023/02/09 05:06:10;;;;;;;;;;;;;;;-3.60;66.70;102972.41;4105088;28;20017;-63
2023/02/09 05:08:11;;;;;;;;;;;;;;;-3.64;66.66;102968.97;4107369;28;20017;-64
2023/02/09 05:10:13;;;;;;;;;;;;;;;-3.65;66.51;102969.88;4106814;28;20013;-63
2023/02/09 05:12:15;;;;;;;;;;;;;;;-3.70;66.62;102966.44;4106933;28;20050;-63
2023/02/09 05:14:18;;;;;;;;;;;;;;;-3.74;66.75;102963.91;4106174;28;20369;-64
2023/02/09 05:16:21;;;;;;;;;;;;;;;-3.78;66.79;102957.78;4107294;28;20029;-63
2023/02/09 05:18:23;;;;;;;;;;;;;;;-3.79;67.05;102966.63;4104903;28;20030;-64
2023/02/09 05:20:25;;;;;;;;;;;;;;;-3.77;67.08;102964.81;4104252;28;20026;-64
2023/02/09 05:22:27;;;;;;;;;;;;;;;-3.80;66.89;102964.88;4107792;28;20021;-64
2023/02/09 05:24:29;;;;;;;;;;;;;;;-3.80;67.08;102965.72;4105392;28;20017;-64
2023/02/09 05:26:31;;;;;;;;;;;;;;;-3.77;67.02;102966.59;4106171;28;20369;-64
2023/02/09 05:28:33;;;;;;;;;;;;;;;-3.76;66.88;102958.66;4106353;28;20025;-64
2023/02/09 05:30:36;;;;;;;;;;;;;;;-3.77;66.84;102966.59;4104880;28;20440;-64
2023/02/09 05:32:39;;;;;;;;;;;;;;;-3.80;66.88;102963.09;4104945;28;20460;-63
2023/02/09 05:34:41;;;;;;;;;;;;;;;-3.82;66.81;102959.63;4105512;28;20025;-64
2023/02/09 05:36:43;;;;;;;;;;;;;;;-3.82;66.91;102954.34;4106498;28;20025;-63
2023/02/09 05:38:45;;;;;;;;;;;;;;;-3.78;67.03;102959.56;4105305;28;20508;-63
2023/02/09 05:40:47;;;;;;;;;;;;;;;-3.88;66.79;102948.31;4105086;28;19994;-64
2023/02/09 05:42:49;;;;;;;;;;;;;;;-3.97;66.94;102951.13;4107290;28;20373;-64
2023/02/09 05:44:51;;;;;;;;;;;;;;;-4.02;67.28;102953.84;4105500;28;20017;-64
2023/02/09 05:46:53;;;;;;;;;;;;;;;-4.06;67.46;102958.31;4105803;28;20021;-63
2023/02/09 05:48:56;;;;;;;;;;;;;;;-4.04;67.66;102947.75;4105488;28;20049;-64
2023/02/09 05:50:58;;;;;;;;;;;;;;;-4.03;67.60;102950.34;4106318;28;20033;-64
2023/02/09 05:53:00;;;;;;;;;;;;;;;-4.02;67.66;102951.22;4105376;28;20021;-63
2023/02/09 05:55:02;;;;;;;;;;;;;;;-4.02;67.56;102957.34;4081011;28;19945;-63
2023/02/09 05:57:04;;;;;;;;;;;;;;;-4.03;67.61;102955.63;4085507;28;19930;-63
2023/02/09 05:59:06;;;;;;;;;;;;;;;-4.03;67.58;102960.00;4105399;28;20365;-64
2023/02/09 06:01:08;;;;;;;;;;;;;;;-4.01;67.63;102968.81;4105316;28;20370;-63
2023/02/09 06:03:10;;;;;;;;;;;;;;;-4.03;67.59;102960.00;4106236;28;20061;-63
2023/02/09 06:05:13;;;;;;;;;;;;;;;-4.07;67.52;102967.13;4105569;28;20013;-63
2023/02/09 06:07:15;;;;;;;;;;;;;;;-4.07;67.52;102966.28;4105882;28;20010;-63
2023/02/09 06:09:17;;;;;;;;;;;;;;;-4.13;67.30;102964.59;4106048;28;20016;-64
2023/02/09 06:11:19;;;;;;;;;;;;;;;-4.20;67.35;102970.88;4105647;28;20400;-62
2023/02/09 06:13:21;;;;;;;;;;;;;;;-4.23;67.57;102974.44;4105535;28;20429;-62
2023/02/09 06:15:23;;;;;;;;;;;;;;;-4.23;67.68;102971.81;4104965;28;20021;-62
2023/02/09 06:17:25;;;;;;;;;;;;;;;-4.21;67.83;102971.78;4105274;28;20368;-64
2023/02/09 06:19:27;;;;;;;;;;;;;;;-4.18;67.80;102972.59;4105280;28;20021;-64
2023/02/09 06:21:31;;;;;;;;;;;;;;;-4.15;67.74;102971.69;4105991;28;20367;-64
2023/02/09 06:23:33;;;;;;;;;;;;;;;-4.16;67.51;102969.94;4105666;28;20038;-63
2023/02/09 06:25:35;;;;;;;;;;;;;;;-4.13;67.59;102974.28;4105402;28;20034;-64
2023/02/09 06:27:36;;;;;;;;;;;;;;;-4.14;67.58;102973.41;4105217;28;20026;-62
2023/02/09 06:29:39;;;;;;;;;;;;;;;-4.12;67.60;102973.38;4105305;28;20001;-63
2023/02/09 06:31:41;;;;;;;;;;;;;;;-4.12;67.48;102968.09;4105865;28;20020;-64
2023/02/09 06:33:43;;;;;;;;;;;;;;;-4.09;67.36;102978.59;4105222;28;20034;-63
2023/02/09 06:35:45;;;;;;;;;;;;;;;-4.07;67.33;102969.78;4104740;28;20460;-63
2023/02/09 06:37:48;;;;;;;;;;;;;;;-4.03;67.18;102965.28;4105987;28;20033;-64
2023/02/09 06:39:50;;;;;;;;;;;;;;;-4.02;67.00;102977.59;4105316;28;20009;-63
2023/02/09 06:41:52;;;;;;;;;;;;;;;-4.02;66.88;102962.63;4104374;28;20484;-63
2023/02/09 06:43:54;;;;;;;;;;;;;;;-4.01;66.78;102964.38;4104167;28;20032;-65
2023/02/09 06:45:56;;;;;;;;;;;;;;;-4.02;66.71;102965.28;4105026;28;20341;-64
2023/02/09 06:47:58;;;;;;;;;;;;;;;-4.03;66.54;102967.94;4105163;28;20034;-64
2023/02/09 06:50:00;;;;;;;;;;;;;;;-4.02;66.58;102967.91;4103662;28;20022;-64
2023/02/09 06:52:02;;;;;;;;;;;;;;;-4.01;66.52;102969.66;4104749;28;20032;-65
2023/02/09 06:54:05;;;;;;;;;;;;;;;-4.02;66.63;102975.81;4104510;28;20021;-64
2023/02/09 06:56:07;;;;;;;;;;;;;;;-4.00;66.58;102966.13;4104186;28;20013;-64
2023/02/09 06:58:09;;;;;;;;;;;;;;;-3.99;66.56;102975.78;4104438;28;20017;-65
2023/02/09 07:00:12;;;;;;;;;;;;;;;-3.96;66.46;102972.22;4104684;28;20744;-66
2023/02/09 07:02:13;;;;;;;;;;;;;;;-3.96;66.40;102964.28;4104777;28;20045;-68
2023/02/09 07:04:15;;;;;;;;;;;;;;;-3.92;66.43;102973.03;4104525;28;20013;-65
2023/02/09 07:06:18;;;;;;;;;;;;;;;-3.89;66.46;102967.69;4104129;28;20021;-65
2023/02/09 07:08:20;;;;;;;;;;;;;;;-3.88;66.09;102969.44;4105077;28;20024;-63
2023/02/09 07:10:23;;;;;;;;;;;;;;;-3.86;66.25;102979.06;4103274;28;20028;-65
2023/02/09 07:12:25;;;;;;;;;;;;;;;-3.86;66.21;102972.91;4104685;28;20017;-64
2023/02/09 07:14:27;;;;;;;;;;;;;;;-3.85;66.33;102972.88;4102885;28;20363;-64
2023/02/09 07:16:29;;;;;;;;;;;;;;;-3.86;66.17;102976.41;4104697;28;20028;-66
2023/02/09 07:18:31;;;;;;;;;;;;;;;-3.84;66.17;102976.38;4104770;28;20425;-65
2023/02/09 07:20:33;;;;;;;;;;;;;;;-3.83;66.22;102979.00;4103044;28;20017;-64
2023/02/09 07:22:35;;;;;;;;;;;;;;;-3.82;66.01;102978.09;4102720;28;20042;-64
2023/02/09 07:24:37;;;;;;;;;;;;;;;-3.80;66.13;102973.66;4101555;28;20011;-65
2023/02/09 07:26:41;;;;;;;;;;;;;;;-3.78;66.12;102965.69;4102993;28;20026;-65
2023/02/09 07:28:43;;;;;;;;;;;;;;;-3.75;66.19;102970.06;4105922;28;20029;-65
2023/02/09 07:30:45;;;;;;;;;;;;;;;-3.74;65.91;102955.97;4106161;28;20021;-64
2023/02/09 07:32:47;;;;;;;;;;;;;;;-3.74;66.05;102954.19;4107419;28;20021;-65
2023/02/09 07:34:49;;;;;;;;;;;;;;;-3.73;65.87;102961.22;4107003;28;20370;-64
2023/02/09 07:36:51;;;;;;;;;;;;;;;-3.70;66.11;102961.16;4107772;28;20025;-65
2023/02/09 07:38:53;;;;;;;;;;;;;;;-3.67;65.87;102958.47;4108104;28;20020;-64
2023/02/09 07:40:55;;;;;;;;;;;;;;;-3.63;65.92;102964.56;4104680;28;20374;-63
2023/02/09 07:42:58;;;;;;;;;;;;;;;-3.62;65.59;102959.25;4108438;28;20028;-65
2023/02/09 07:45:00;;;;;;;;;;;;;;;-3.60;65.56;102953.03;4107430;28;20017;-65
2023/02/09 07:47:02;;;;;;;;;;;;;;;-3.57;65.64;102963.53;4107318;28;20017;-64
2023/02/09 07:49:04;;;;;;;;;;;;;;;-3.52;65.72;102973.13;4108048;28;20020;-65
2023/02/09 07:51:06;;;;;;;;;;;;;;;-3.54;65.41;102955.56;4107131;28;20026;-64
2023/02/09 07:53:08;;;;;;;;;;;;;;;-3.45;65.52;102958.91;4107849;28;20460;-64
2023/02/09 07:55:10;;;;;;;;;;;;;;;-3.42;65.52;102965.88;4106938;28;20026;-63
2023/02/09 07:57:12;;;;;;;;;;;;;;;-3.37;65.55;102963.13;4107453;28;20512;-64
2023/02/09 07:59:15;;;;;;;;;;;;;;;-3.34;65.40;102965.72;4108030;28;20025;-64
2023/02/09 08:01:18;;;;;;;;;;;;;;;-3.31;65.51;102963.00;4106048;28;20568;-64
2023/02/09 08:03:20;;;;;;;;;;;;;;;-3.29;65.40;102967.38;4107573;28;20366;-63
2023/02/09 08:05:24;;;;;;;;;;;;;;;-3.22;65.50;102967.25;4106325;28;20017;-65
2023/02/09 08:07:26;;;;;;;;;;;;;;;-3.18;65.53;102967.16;4107812;28;20033;-64
2023/02/09 08:09:29;;;;;;;;;;;;;;;-3.13;65.39;102965.25;4106707;28;20049;-64
2023/02/09 08:11:31;;;;;;;;;;;;;;;-3.07;65.39;102958.97;4107142;28;20021;-63
2023/02/09 08:13:34;;;;;;;;;;;;;;;-3.03;65.21;102960.63;4107729;28;20025;-65
2023/02/09 08:15:38;;;;;;;;;;;;;;;-2.97;65.06;102962.28;4106510;28;20600;-63
2023/02/09 08:17:40;;;;;;;;;;;;;;;-2.94;65.09;102957.78;4107160;28;20008;-65
2023/02/09 08:19:42;;;;;;;;;;;;;;;-2.90;65.31;102959.47;4106899;28;20025;-64
2023/02/09 08:21:44;;;;;;;;;;;;;;;-2.84;65.30;102953.13;4106655;28;20021;-64
2023/02/09 08:23:47;;;;;;;;;;;;;;;-2.79;65.29;102955.69;4107328;28;20018;-65
2023/02/09 08:25:50;;;;;;;;;;;;;;;-2.73;65.13;102950.25;4106891;28;20448;-65
2023/02/09 08:27:53;;;;;;;;;;;;;;;-2.68;65.10;102955.44;4107079;28;20017;-64
2023/02/09 08:29:55;;;;;;;;;;;;;;;-2.64;64.87;102952.69;4106801;28;20481;-65
2023/02/09 08:31:58;;;;;;;;;;;;;;;-2.58;64.96;102949.03;4107198;28;20025;-65
2023/02/09 08:34:00;;;;;;;;;;;;;;;-2.51;64.88;102950.59;4107319;28;20026;-64
2023/02/09 08:36:03;;;;;;;;;;;;;;;-2.45;64.50;102949.59;4106893;28;20014;-65
2023/02/09 08:38:04;;;;;;;;;;;;;;;-2.39;64.41;102952.94;4105823;28;20379;-65
2023/02/09 08:40:07;;;;;;;;;;;;;;;-2.31;64.31;102949.25;4106664;28;20436;-63
2023/02/09 08:42:09;;;;;;;;;;;;;;;-2.24;64.26;102946.41;4107356;28;20021;-65
2023/02/09 08:44:11;;;;;;;;;;;;;;;-2.17;63.85;102937.38;4106984;28;20045;-64
2023/02/09 08:46:13;;;;;;;;;;;;;;;-2.11;63.91;102930.19;4106514;28;20030;-65
2023/02/09 08:48:16;;;;;;;;;;;;;;;-2.04;63.92;102931.75;4089956;28;20068;-65
2023/02/09 08:50:18;;;;;;;;;;;;;;;-1.97;63.99;102933.34;4106473;28;20033;-63
2023/02/09 08:52:20;;;;;;;;;;;;;;;-1.89;63.95;102933.97;4107004;28;20013;-65
2023/02/09 08:54:22;;;;;;;;;;;;;;;-1.82;63.87;102932.03;4106129;28;20029;-64
2023/02/09 08:56:24;;;;;;;;;;;;;;;-1.73;63.78;102933.56;4106832;28;20025;-63
2023/02/09 08:58:26;;;;;;;;;;;;;;;-1.67;63.63;102930.75;4106345;28;20448;-65
2023/02/09 09:00:28;;;;;;;;;;;;;;;-1.57;63.09;102934.84;4106242;28;20337;-64
2023/02/09 09:02:30;;;;;;;;;;;;;;;-1.50;62.90;102935.56;4106462;28;20022;-65
2023/02/09 09:04:33;;;;;;;;;;;;;;;-1.45;62.70;102931.84;4106229;28;20453;-65
2023/02/09 09:06:35;;;;;;;;;;;;;;;-1.39;62.79;102943.19;4106787;28;20029;-64
2023/02/09 09:08:38;;;;;;;;;;;;;;;-1.33;62.60;102924.47;4106495;28;20366;-64
2023/02/09 09:10:40;;;;;;;;;;;;;;;-1.28;62.47;102934.00;4105905;28;20033;-64
2023/02/09 09:12:42;;;;;;;;;;;;;;;-1.22;62.42;102940.91;4106294;28;20421;-65
2023/02/09 09:14:44;;;;;;;;;;;;;;;-1.22;61.96;102940.03;4106255;28;20009;-66
2023/02/09 09:16:46;;;;;;;;;;;;;;;-1.09;62.06;102926.34;4106428;28;20049;-66
2023/02/09 09:18:48;;;;;;;;;;;;;;;-1.04;61.66;102920.03;4105614;28;20567;-66
2023/02/09 09:20:51;;;;;;;;;;;;;;;-1.00;61.70;102930.50;4105558;28;20013;-66
2023/02/09 09:22:58;;;;;;;;;;;;;;;-0.95;61.76;102939.19;4106328;28;20026;-66
2023/02/09 09:25:00;;;;;;;;;;;;;;;-0.91;61.50;102938.19;4105600;28;20013;-66
2023/02/09 09:27:01;;;;;;;;;;;;;;;-0.84;61.08;102927.38;4105896;28;20477;-65
2023/02/09 09:29:04;;;;;;;;;;;;;;;-0.81;60.96;102937.88;4106451;28;20021;-63
2023/02/09 09:31:09;;;;;;;;;;;;;;;-0.76;60.75;102935.94;4105203;28;20009;-65
2023/02/09 09:33:11;;;;;;;;;;;;;;;-0.74;60.63;102939.41;4105732;28;20024;-65
2023/02/09 09:35:13;;;;;;;;;;;;;;;-0.70;60.44;102934.88;4105970;28;20021;-65
2023/02/09 09:37:16;;;;;;;;;;;;;;;-0.63;60.67;102931.09;4106240;28;20024;-65
2023/02/09 09:39:18;;;;;;;;;;;;;;;-0.61;60.48;102918.63;4105871;28;20021;-64
2023/02/09 09:41:21;;;;;;;;;;;;;;;-0.60;60.67;102931.00;4105447;28;20342;-65
2023/02/09 09:43:24;;;;;;;;;;;;;;;-0.57;60.95;102929.09;4105720;28;20009;-64
2023/02/09 09:45:26;;;;;;;;;;;;;;;-0.52;59.90;102930.75;4105674;28;20377;-65
2023/02/09 09:47:33;;;;;;;;;;;;;;;-0.49;59.79;102917.38;4106133;28;20028;-64
2023/02/09 09:49:35;;;;;;;;;;;;;;;-0.46;59.85;102928.75;4105125;28;20461;-65
2023/02/09 09:51:38;;;;;;;;;;;;;;;-0.42;59.24;102932.19;4105555;28;20033;-65
2023/02/09 09:53:41;;;;;;;;;;;;;;;-0.39;59.93;102924.13;4105940;28;20044;-65
2023/02/09 09:55:43;;;;;;;;;;;;;;;-0.36;59.50;102939.94;4105471;28;20017;-64
2023/02/09 09:57:45;;;;;;;;;;;;;;;-0.31;59.79;102923.81;4106008;28;20020;-64
2023/02/09 09:59:47;;;;;;;;;;;;;;;-0.24;59.97;102925.38;4105326;28;20346;-64
2023/02/09 10:01:50;;;;;;;;;;;;;;;-0.19;59.51;102915.44;4105748;28;20021;-63
2023/02/09 10:03:52;;;;;;;;;;;;;;;-0.16;59.50;102911.81;4105601;28;20008;-65
2023/02/09 10:05:54;;;;;;;;;;;;;;;-0.13;59.26;102911.72;4105166;28;20370;-65
2023/02/09 10:07:58;;;;;;;;;;;;;;;-0.10;59.64;102899.19;4105167;28;20543;-65
2023/02/09 10:10:02;;;;;;;;;;;;;;;-0.06;59.32;102884.88;4105233;28;20009;-65
2023/02/09 10:12:07;;;;;;;;;;;;;;;-0.03;59.47;102873.28;4105237;28;20017;-64
2023/02/09 10:14:09;;;;;;;;;;;;;;;0.01;58.97;102876.69;4105846;28;20017;-63
2023/02/09 10:16:14;;;;;;;;;;;;;;;0.07;59.25;102879.97;4105350;28;20017;-64
2023/02/09 10:18:16;;;;;;;;;;;;;;;0.10;58.84;102882.53;4104104;28;20228;-63
2023/02/09 10:20:18;;;;;;;;;;;;;;;0.18;58.73;102883.09;4105379;28;20009;-65
2023/02/09 10:22:21;;;;;;;;;;;;;;;0.18;58.91;102877.78;4105825;28;20026;-64
2023/02/09 10:24:24;;;;;;;;;;;;;;;0.27;58.30;102873.94;4105422;28;20362;-64
2023/02/09 10:26:29;;;;;;;;;;;;;;;0.35;57.87;102876.31;4105876;28;20408;-65
2023/02/09 10:28:32;;;;;;;;;;;;;;;0.37;58.00;102870.94;4103575;28;20029;-63
2023/02/09 10:30:34;;;;;;;;;;;;;;;0.42;57.81;102871.63;4105072;28;20033;-64
2023/02/09 10:32:36;;;;;;;;;;;;;;;0.47;57.58;102859.88;4105253;28;20017;-65
2023/02/09 10:34:41;;;;;;;;;;;;;;;0.52;57.20;102859.72;4104110;28;20017;-64
2023/02/09 10:36:47;;;;;;;;;;;;;;;0.52;57.76;102862.38;4105215;28;20053;-65
2023/02/09 10:38:49;;;;;;;;;;;;;;;0.56;57.78;102856.00;4105278;28;20021;-64
2023/02/09 10:40:51;;;;;;;;;;;;;;;0.62;57.56;102849.56;4104947;28;20021;-64